createdAt,value
2023-05-13T00:31:37.895Z,18.50
2023-05-13T00:32:09.623Z,18.60
2023-05-13T00:33:14.552Z,18.60
2023-05-13T00:33:46.207Z,18.50
2023-05-13T00:37:01.277Z,18.50
2023-05-13T00:39:43.230Z,18.60
2023-05-13T00:40:14.885Z,18.60
2023-05-13T00:41:52.251Z,18.50
2023-05-13T00:44:33.955Z,18.50
2023-05-13T00:45:38.233Z,18.50
2023-05-13T00:47:15.502Z,18.60
2023-05-13T00:47:47.250Z,18.60
2023-05-13T00:48:18.916Z,18.60
2023-05-13T00:48:50.579Z,18.70
2023-05-13T00:49:55.434Z,18.50
2023-05-13T00:50:27.121Z,18.60
2023-05-13T00:51:31.424Z,18.50
2023-05-13T00:54:12.336Z,18.50
2023-05-13T00:54:43.980Z,18.70
2023-05-13T00:56:20.372Z,18.50
2023-05-13T01:00:06.460Z,18.60
2023-05-13T01:22:23.090Z,18.50
2023-05-13T01:23:27.032Z,18.60
2023-05-13T01:23:58.716Z,18.60
2023-05-13T01:24:30.429Z,18.60
2023-05-13T01:25:02.140Z,18.50
2023-05-13T01:25:33.825Z,18.60
2023-05-13T01:26:05.573Z,18.60
2023-05-13T01:26:37.218Z,18.60
2023-05-13T01:27:41.174Z,18.60
2023-05-13T01:28:12.820Z,18.70
2023-05-13T01:28:44.470Z,18.50
2023-05-13T01:29:16.152Z,18.60
2023-05-13T01:29:47.841Z,18.60
2023-05-13T01:30:19.645Z,18.60
2023-05-13T01:30:51.691Z,18.50
2023-05-13T01:31:23.489Z,18.60
2023-05-13T01:31:55.218Z,18.70
2023-05-13T01:32:26.917Z,18.50
2023-05-13T01:32:58.670Z,18.60
2023-05-13T01:33:30.473Z,18.60
2023-05-13T01:34:02.148Z,18.50
2023-05-13T01:35:38.363Z,18.50
2023-05-13T01:36:42.291Z,18.60
2023-05-13T01:37:13.956Z,18.50
2023-05-13T01:39:23.316Z,18.50
2023-05-13T01:39:54.979Z,18.50
2023-05-13T01:41:37.038Z,18.50
2023-05-13T01:43:45.544Z,18.50
2023-05-13T01:45:22.852Z,18.50
2023-05-13T01:45:54.569Z,18.60
2023-05-13T01:46:26.232Z,18.70
2023-05-13T01:46:57.928Z,18.50
2023-05-13T01:47:29.678Z,18.70
2023-05-13T01:48:01.428Z,18.50
2023-05-13T01:50:43.164Z,18.50
2023-05-13T01:51:47.324Z,18.50
2023-05-13T01:52:18.978Z,18.60
2023-05-13T01:52:50.671Z,18.50
2023-05-13T01:53:22.351Z,18.60
2023-05-13T01:53:54.001Z,18.60
2023-05-13T01:54:25.675Z,18.60
2023-05-13T01:54:57.364Z,18.50
2023-05-13T01:55:29.019Z,18.50
2023-05-13T01:56:00.692Z,18.50
2023-05-13T01:56:32.343Z,18.60
2023-05-13T01:57:36.385Z,18.50
2023-05-13T01:58:08.051Z,18.60
2023-05-13T01:58:39.694Z,18.60
2023-05-13T01:59:11.372Z,18.60
2023-05-13T01:59:43.035Z,18.60
2023-05-13T02:00:14.700Z,18.60
2023-05-13T02:00:46.393Z,18.50
2023-05-13T02:02:26.105Z,18.50
2023-05-13T02:02:57.923Z,18.60
2023-05-13T02:03:29.844Z,18.70
2023-05-13T02:06:43.646Z,18.50
2023-05-13T03:34:55.985Z,18.40
2023-05-13T03:35:27.630Z,18.60
2023-05-13T03:35:59.276Z,18.60
2023-05-13T03:36:30.924Z,18.50
2023-05-13T03:37:02.578Z,18.60
2023-05-13T03:37:34.230Z,18.50
2023-05-13T03:38:05.902Z,18.60
2023-05-13T03:38:37.560Z,18.50
2023-05-13T03:39:09.246Z,18.60
2023-05-13T03:39:40.895Z,18.40
2023-05-13T03:40:12.550Z,18.60
2023-05-13T03:40:44.232Z,18.50
2023-05-13T03:41:15.895Z,18.50
2023-05-13T03:41:47.600Z,18.60
2023-05-13T03:42:19.284Z,18.50
2023-05-13T03:43:23.220Z,18.50
2023-05-13T03:43:54.861Z,18.60
2023-05-13T03:44:26.549Z,18.40
2023-05-13T03:44:58.192Z,18.40
2023-05-13T03:45:29.851Z,18.60
2023-05-13T03:46:01.498Z,18.60
2023-05-13T03:46:33.174Z,18.50
2023-05-13T03:47:04.949Z,18.60
2023-05-13T03:47:36.675Z,18.50
2023-05-13T03:48:08.468Z,18.50
2023-05-13T03:48:40.240Z,18.50
2023-05-13T03:49:11.904Z,18.50
2023-05-13T03:49:43.591Z,18.50
2023-05-13T03:50:15.238Z,18.60
2023-05-13T03:50:46.899Z,18.40
2023-05-13T03:51:50.877Z,18.50
2023-05-13T03:52:22.533Z,18.50
2023-05-13T03:52:54.191Z,18.40
2023-05-13T03:53:25.860Z,18.50
2023-05-13T03:54:29.809Z,18.50
2023-05-13T03:55:01.502Z,18.40
2023-05-13T03:55:33.187Z,18.60
2023-05-13T03:56:04.860Z,18.50
2023-05-13T03:56:36.509Z,18.50
2023-05-13T03:57:08.206Z,18.50
2023-05-13T03:57:40.005Z,18.60
2023-05-13T03:58:11.657Z,18.60
2023-05-13T03:58:43.302Z,18.40
2023-05-13T03:59:14.967Z,18.60
2023-05-13T03:59:46.609Z,18.50
2023-05-13T04:00:18.345Z,18.60
2023-05-13T04:01:22.402Z,18.50
2023-05-13T04:01:54.108Z,18.60
2023-05-13T04:02:25.930Z,18.60
2023-05-13T04:02:57.779Z,18.50
2023-05-13T04:03:29.578Z,18.50
2023-05-13T04:04:01.294Z,18.50
2023-05-13T04:04:32.990Z,18.50
2023-05-13T04:05:04.724Z,18.50
2023-05-13T04:05:36.476Z,18.50
2023-05-13T04:06:08.147Z,18.50
2023-05-13T04:06:39.797Z,18.50
2023-05-13T04:07:11.481Z,18.50
2023-05-13T04:07:43.155Z,18.60
2023-05-13T04:08:14.807Z,18.60
2023-05-13T04:08:46.446Z,18.50
2023-05-13T04:09:18.094Z,18.50
2023-05-13T04:09:49.759Z,18.50
2023-05-13T04:10:21.624Z,18.40
2023-05-13T04:10:53.525Z,18.50
2023-05-13T04:11:25.265Z,18.50
2023-05-13T04:11:56.924Z,18.50
2023-05-13T04:12:28.597Z,18.60
2023-05-13T04:13:00.285Z,18.50
2023-05-13T04:13:31.931Z,18.50
2023-05-13T04:14:03.604Z,18.50
2023-05-13T04:14:35.373Z,18.60
2023-05-13T04:15:07.020Z,18.60
2023-05-13T04:15:38.705Z,18.50
2023-05-13T04:16:10.353Z,18.50
2023-05-13T04:16:42.087Z,18.60
2023-05-13T04:17:13.825Z,18.60
2023-05-13T04:17:45.554Z,18.60
2023-05-13T04:18:17.266Z,18.50
2023-05-13T04:18:49.032Z,18.60
2023-05-13T04:19:52.998Z,18.50
2023-05-13T04:20:24.697Z,18.60
2023-05-13T04:20:56.356Z,18.60
2023-05-13T04:21:28.007Z,18.60
2023-05-13T04:21:59.692Z,18.50
2023-05-13T04:22:31.353Z,18.60
2023-05-13T04:23:03.021Z,18.60
2023-05-13T04:23:34.681Z,18.50
2023-05-13T04:24:06.388Z,18.60
2023-05-13T04:24:38.083Z,18.60
2023-05-13T04:25:09.741Z,18.50
2023-05-13T04:25:41.429Z,18.50
2023-05-13T04:26:13.091Z,18.60
2023-05-13T04:26:44.742Z,18.50
2023-05-13T04:27:16.445Z,18.60
2023-05-13T04:27:48.128Z,18.60
2023-05-13T04:28:19.791Z,18.50
2023-05-13T04:28:51.447Z,18.60
2023-05-13T04:29:23.091Z,18.60
2023-05-13T04:29:54.834Z,18.50
2023-05-13T04:30:26.488Z,18.40
2023-05-13T04:30:58.146Z,18.60
2023-05-13T04:31:29.875Z,18.60
2023-05-13T04:32:01.584Z,18.50
2023-05-13T04:32:33.372Z,18.40
2023-05-13T04:33:05.110Z,18.60
2023-05-13T04:33:36.763Z,18.50
2023-05-13T04:34:08.432Z,18.60
2023-05-13T04:34:40.099Z,18.60
2023-05-13T04:35:11.799Z,18.60
2023-05-13T04:35:43.476Z,18.40
2023-05-13T04:36:15.368Z,18.40
2023-05-13T04:36:47.063Z,18.50
2023-05-13T04:37:18.707Z,18.60
2023-05-13T04:37:50.389Z,18.50
2023-05-13T04:38:22.045Z,18.60
2023-05-13T04:38:53.718Z,18.60
2023-05-13T04:39:25.380Z,18.40
2023-05-13T04:39:57.038Z,18.50
2023-05-13T04:40:28.685Z,18.60
2023-05-13T04:41:00.339Z,18.60
2023-05-13T04:41:32.005Z,18.50
2023-05-13T04:42:03.638Z,18.50
2023-05-13T04:42:35.322Z,18.50
2023-05-13T04:43:07.037Z,18.60
2023-05-13T04:43:38.683Z,18.50
2023-05-13T04:44:10.353Z,18.60
2023-05-13T04:44:42.015Z,18.40
2023-05-13T04:45:13.767Z,18.50
2023-05-13T04:45:45.422Z,18.40
2023-05-13T04:46:17.142Z,18.50
2023-05-13T04:46:48.877Z,18.50
2023-05-13T04:47:20.628Z,18.50
2023-05-13T04:47:52.407Z,18.50
2023-05-13T04:48:24.093Z,18.60
2023-05-13T04:48:55.726Z,18.50
2023-05-13T04:49:27.870Z,18.40
2023-05-13T04:49:59.989Z,18.50
2023-05-13T04:50:32.084Z,18.60
2023-05-13T04:51:04.303Z,18.50
2023-05-13T04:51:36.339Z,18.50
2023-05-13T04:52:08.354Z,18.50
2023-05-13T04:52:39.996Z,18.50
2023-05-13T04:53:11.680Z,18.60
2023-05-13T04:53:43.335Z,18.60
2023-05-13T04:54:14.982Z,18.50
2023-05-13T04:54:46.632Z,18.50
2023-05-13T04:55:18.276Z,18.60
2023-05-13T04:55:50.073Z,18.60
2023-05-13T04:56:21.737Z,18.60
2023-05-13T04:56:53.681Z,18.50
2023-05-13T04:57:25.354Z,18.50
2023-05-13T04:57:57.034Z,18.40
2023-05-13T04:58:28.745Z,18.60
2023-05-13T04:59:00.431Z,18.50
2023-05-13T04:59:32.085Z,18.50
2023-05-13T05:00:03.734Z,18.50
2023-05-13T05:00:35.400Z,18.50
2023-05-13T05:01:07.112Z,18.50
2023-05-13T05:01:38.984Z,18.60
2023-05-13T05:02:10.677Z,18.40
2023-05-13T05:02:42.348Z,18.40
2023-05-13T05:03:14.021Z,18.40
2023-05-13T05:03:45.706Z,18.50
2023-05-13T05:04:17.420Z,18.50
2023-05-13T05:04:49.102Z,18.50
2023-05-13T05:05:20.862Z,18.50
2023-05-13T05:05:52.513Z,18.50
2023-05-13T05:06:24.162Z,18.60
2023-05-13T05:06:55.803Z,18.50
2023-05-13T05:07:27.453Z,18.70
2023-05-13T05:07:59.124Z,18.60
2023-05-13T05:08:30.812Z,18.60
2023-05-13T05:09:02.475Z,18.50
2023-05-13T05:09:34.215Z,18.50
2023-05-13T05:10:05.859Z,18.60
2023-05-13T05:10:37.507Z,18.50
2023-05-13T05:11:09.199Z,18.50
2023-05-13T05:11:40.867Z,18.50
2023-05-13T05:12:44.808Z,18.50
2023-05-13T05:13:16.458Z,18.50
2023-05-13T05:13:48.109Z,18.60
2023-05-13T05:14:19.757Z,18.60
2023-05-13T05:14:51.476Z,18.70
2023-05-13T05:15:23.129Z,18.40
2023-05-13T05:15:54.829Z,18.60
2023-05-13T05:16:26.473Z,18.50
2023-05-13T05:16:58.150Z,18.50
2023-05-13T05:17:29.970Z,18.50
2023-05-13T05:18:01.769Z,18.50
2023-05-13T05:18:33.578Z,18.50
2023-05-13T05:19:05.359Z,18.50
2023-05-13T05:19:37.043Z,18.60
2023-05-13T05:20:08.698Z,18.60
2023-05-13T05:20:40.354Z,18.50
2023-05-13T05:21:12.135Z,18.50
2023-05-13T05:21:43.798Z,18.50
2023-05-13T05:22:15.524Z,18.50
2023-05-13T05:22:47.161Z,18.60
2023-05-13T05:23:18.876Z,18.60
2023-05-13T05:23:50.529Z,18.40
2023-05-13T05:24:22.191Z,18.50
2023-05-13T05:24:53.877Z,18.50
2023-05-13T05:25:25.583Z,18.60
2023-05-13T05:26:07.906Z,18.60
2023-05-13T05:26:43.136Z,18.50
2023-05-13T05:27:14.885Z,18.50
2023-05-13T05:27:46.538Z,18.40
2023-05-13T05:28:18.251Z,18.50
2023-05-13T05:28:49.917Z,18.50
2023-05-13T05:29:53.851Z,18.50
2023-05-13T05:30:25.532Z,18.60
2023-05-13T05:30:57.189Z,18.50
2023-05-13T05:31:28.879Z,18.40
2023-05-13T05:32:00.673Z,18.50
2023-05-13T05:32:32.494Z,18.50
2023-05-13T05:33:04.290Z,18.60
2023-05-13T05:33:35.952Z,18.40
2023-05-13T05:34:07.753Z,18.40
2023-05-13T05:34:39.416Z,18.50
2023-05-13T05:35:11.099Z,18.50
2023-05-13T05:35:42.746Z,18.50
2023-05-13T05:36:14.416Z,18.50
2023-05-13T05:36:46.078Z,18.50
2023-05-13T05:37:17.741Z,18.60
2023-05-13T05:37:49.395Z,18.50
2023-05-13T05:38:21.081Z,18.50
2023-05-13T05:38:52.835Z,18.50
2023-05-13T05:39:24.497Z,18.60
2023-05-13T05:39:56.194Z,18.50
2023-05-13T05:40:27.853Z,18.50
2023-05-13T05:40:59.495Z,18.40
2023-05-13T05:41:31.149Z,18.50
2023-05-13T05:42:35.070Z,18.50
2023-05-13T05:43:06.741Z,18.50
2023-05-13T05:44:10.698Z,18.50
2023-05-13T05:44:42.366Z,18.60
2023-05-13T05:45:14.052Z,18.50
2023-05-13T05:45:45.771Z,18.50
2023-05-13T05:46:17.521Z,18.50
2023-05-13T05:46:49.191Z,18.50
2023-05-13T05:47:20.831Z,18.50
2023-05-13T05:47:52.498Z,18.50
2023-05-13T05:48:24.239Z,18.50
2023-05-13T05:48:55.888Z,18.50
2023-05-13T05:49:27.577Z,18.50
2023-05-13T05:49:59.252Z,18.60
2023-05-13T05:50:30.925Z,18.50
2023-05-13T05:51:02.563Z,18.50
2023-05-13T05:51:34.211Z,18.50
2023-05-13T05:52:05.857Z,18.50
2023-05-13T05:52:37.497Z,18.60
2023-05-13T05:53:09.139Z,18.60
2023-05-13T05:53:40.901Z,18.40
2023-05-13T05:54:12.756Z,18.60
2023-05-13T05:54:44.439Z,18.50
2023-05-13T05:55:16.090Z,18.40
2023-05-13T05:55:47.788Z,18.60
2023-05-13T05:56:19.475Z,18.60
2023-05-13T05:56:51.125Z,18.50
2023-05-13T05:57:22.865Z,18.60
2023-05-13T05:57:54.543Z,18.50
2023-05-13T05:58:26.210Z,18.50
2023-05-13T05:58:57.876Z,18.50
2023-05-13T05:59:29.521Z,18.50
2023-05-13T06:00:01.217Z,18.50
2023-05-13T06:00:32.873Z,18.60
2023-05-13T06:01:04.523Z,18.50
2023-05-13T06:01:36.172Z,18.50
2023-05-13T06:02:07.907Z,18.40
2023-05-13T06:02:39.777Z,18.50
2023-05-13T06:03:11.630Z,18.40
2023-05-13T06:03:43.638Z,18.40
2023-05-13T06:04:15.407Z,18.60
2023-05-13T06:04:47.274Z,18.50
2023-05-13T06:05:18.990Z,18.50
2023-05-13T06:05:50.638Z,18.50
2023-05-13T06:06:22.287Z,18.50
2023-05-13T06:06:54.002Z,18.50
2023-05-13T06:07:25.658Z,18.60
2023-05-13T06:07:57.307Z,18.50
2023-05-13T06:08:28.998Z,18.50
2023-05-13T06:09:00.677Z,18.60
2023-05-13T06:09:32.427Z,18.50
2023-05-13T06:10:05.035Z,18.50
2023-05-13T06:10:38.033Z,18.50
2023-05-13T06:11:09.704Z,18.50
2023-05-13T06:11:41.355Z,18.50
2023-05-13T06:12:13.034Z,18.50
2023-05-13T06:12:44.688Z,18.50
2023-05-13T06:13:16.340Z,18.50
2023-05-13T06:13:48.014Z,18.50
2023-05-13T06:14:19.701Z,18.50
2023-05-13T06:14:51.359Z,18.40
2023-05-13T06:15:23.055Z,18.50
2023-05-13T06:15:54.819Z,18.40
2023-05-13T06:16:26.636Z,18.50
2023-05-13T06:16:58.352Z,18.60
2023-05-13T06:17:30.048Z,18.60
2023-05-13T06:18:01.874Z,18.50
2023-05-13T06:18:33.650Z,18.50
2023-05-13T06:19:05.349Z,18.50
2023-05-13T06:19:37.144Z,18.50
2023-05-13T06:20:08.885Z,18.60
2023-05-13T06:20:40.548Z,18.40
2023-05-13T06:21:12.190Z,18.50
2023-05-13T06:21:43.844Z,18.50
2023-05-13T06:22:15.501Z,18.50
2023-05-13T06:22:47.143Z,18.40
2023-05-13T06:23:18.795Z,18.60
2023-05-13T06:23:50.489Z,18.50
2023-05-13T06:24:22.144Z,18.40
2023-05-13T06:24:53.800Z,18.50
2023-05-13T06:25:25.480Z,18.50
2023-05-13T06:25:57.125Z,18.50
2023-05-13T06:27:01.056Z,18.40
2023-05-13T06:27:32.747Z,18.50
2023-05-13T06:28:04.399Z,18.40
2023-05-13T06:28:36.078Z,18.50
2023-05-13T06:29:07.748Z,18.50
2023-05-13T06:29:39.420Z,18.50
2023-05-13T06:30:11.069Z,18.50
2023-05-13T06:30:42.708Z,18.50
2023-05-13T06:31:14.371Z,18.50
2023-05-13T06:31:46.205Z,18.50
2023-05-13T06:32:17.993Z,18.40
2023-05-13T06:33:00.127Z,18.40
2023-05-13T06:33:33.105Z,18.50
2023-05-13T06:34:04.903Z,18.50
2023-05-13T06:34:36.569Z,18.50
2023-05-13T06:35:08.231Z,18.50
2023-05-13T06:35:39.938Z,18.50
2023-05-13T06:36:11.598Z,18.50
2023-05-13T06:36:43.254Z,18.50
2023-05-13T06:37:14.909Z,18.50
2023-05-13T06:37:46.577Z,18.50
2023-05-13T06:38:18.247Z,18.60
2023-05-13T06:38:49.987Z,18.50
2023-05-13T06:39:21.696Z,18.50
2023-05-13T06:39:53.341Z,18.50
2023-05-13T06:40:24.992Z,18.60
2023-05-13T06:40:56.702Z,18.50
2023-05-13T06:41:28.374Z,18.50
2023-05-13T06:42:32.299Z,18.50
2023-05-13T06:43:03.935Z,18.60
2023-05-13T06:43:35.584Z,18.60
2023-05-13T06:44:07.247Z,18.60
2023-05-13T06:44:38.955Z,18.60
2023-05-13T06:45:10.601Z,18.60
2023-05-13T06:45:42.244Z,18.60
2023-05-13T06:46:13.937Z,18.60
2023-05-13T06:46:45.634Z,18.50
2023-05-13T06:47:17.442Z,18.60
2023-05-13T06:47:49.262Z,18.60
2023-05-13T06:48:20.943Z,18.60
2023-05-13T06:48:52.622Z,18.40
2023-05-13T06:49:24.283Z,18.40
2023-05-13T06:49:55.952Z,18.60
2023-05-13T06:50:27.675Z,18.50
2023-05-13T06:50:59.370Z,18.40
2023-05-13T06:51:31.023Z,18.60
2023-05-13T06:52:02.661Z,18.60
2023-05-13T06:52:34.318Z,18.60
2023-05-13T06:53:05.966Z,18.40
2023-05-13T06:53:37.625Z,18.60
2023-05-13T06:54:09.313Z,18.60
2023-05-13T06:54:40.963Z,18.60
2023-05-13T06:55:12.610Z,18.40
2023-05-13T06:55:44.354Z,18.50
2023-05-13T06:56:16.030Z,18.50
2023-05-13T06:56:47.810Z,18.50
2023-05-13T06:57:20.780Z,18.50
2023-05-13T06:57:53.682Z,18.50
2023-05-13T06:58:25.337Z,18.50
2023-05-13T06:58:57.011Z,18.60
2023-05-13T06:59:28.661Z,18.50
2023-05-13T07:00:00.317Z,18.50
2023-05-13T07:00:31.983Z,18.50
2023-05-13T07:01:03.742Z,18.60
2023-05-13T07:01:35.431Z,18.50
2023-05-13T07:02:07.139Z,18.50
2023-05-13T07:02:39.452Z,18.50
2023-05-13T07:03:11.210Z,18.50
2023-05-13T07:03:42.909Z,18.50
2023-05-13T07:04:14.735Z,18.40
2023-05-13T07:04:46.438Z,18.50
2023-05-13T07:05:18.104Z,18.50
2023-05-13T07:05:49.758Z,18.60
2023-05-13T07:06:21.403Z,18.50
2023-05-13T07:06:53.062Z,18.60
2023-05-13T07:07:24.825Z,18.50
2023-05-13T07:07:56.481Z,18.60
2023-05-13T07:08:28.205Z,18.40
2023-05-13T07:08:59.881Z,18.60
2023-05-13T07:09:31.548Z,18.50
2023-05-13T07:10:03.202Z,18.50
2023-05-13T07:10:34.884Z,18.50
2023-05-13T07:11:06.550Z,18.50
2023-05-13T07:11:38.202Z,18.50
2023-05-13T07:12:09.849Z,18.60
2023-05-13T07:12:41.501Z,18.50
2023-05-13T07:13:13.158Z,18.50
2023-05-13T07:13:44.808Z,18.40
2023-05-13T07:14:16.490Z,18.50
2023-05-13T07:14:48.134Z,18.40
2023-05-13T07:15:20.087Z,18.60
2023-05-13T07:15:51.920Z,18.50
2023-05-13T07:16:23.661Z,18.50
2023-05-13T07:16:55.334Z,18.50
2023-05-13T07:17:27.299Z,18.50
2023-05-13T07:17:59.033Z,18.50
2023-05-13T07:18:30.859Z,18.50
2023-05-13T07:19:02.690Z,18.50
2023-05-13T07:20:38.943Z,18.50
2023-05-13T07:21:10.616Z,18.50
2023-05-13T07:21:42.275Z,18.60
2023-05-13T07:22:46.236Z,18.50
2023-05-13T07:23:17.905Z,18.60
2023-05-13T07:24:21.873Z,18.50
2023-05-13T07:24:53.621Z,18.50
2023-05-13T07:25:25.312Z,18.60
2023-05-13T07:25:57.126Z,18.50
2023-05-13T07:26:28.858Z,18.50
2023-05-13T07:27:00.558Z,18.50
2023-05-13T07:27:32.234Z,18.50
2023-05-13T07:28:03.906Z,18.60
2023-05-13T07:29:07.916Z,18.50
2023-05-13T07:29:39.565Z,18.50
2023-05-13T07:30:11.247Z,18.50
2023-05-13T07:30:42.941Z,18.60
2023-05-13T07:31:14.840Z,18.50
2023-05-13T07:31:46.489Z,18.50
2023-05-13T07:32:18.149Z,18.60
2023-05-13T07:32:50.915Z,18.40
2023-05-13T07:33:23.715Z,18.60
2023-05-13T07:33:55.400Z,18.50
2023-05-13T07:34:27.083Z,18.50
2023-05-13T07:34:58.749Z,18.60
2023-05-13T07:35:30.393Z,18.50
2023-05-13T07:36:02.055Z,18.50
2023-05-13T07:36:33.736Z,18.50
2023-05-13T07:37:05.406Z,18.60
2023-05-13T07:37:37.101Z,18.50
2023-05-13T07:38:08.778Z,18.40
2023-05-13T07:38:40.427Z,18.50
2023-05-13T07:39:44.301Z,18.50
2023-05-13T07:40:16.008Z,18.50
2023-05-13T07:40:47.672Z,18.50
2023-05-13T07:41:19.340Z,18.50
2023-05-13T07:41:50.983Z,18.50
2023-05-13T07:42:22.678Z,18.50
2023-05-13T07:42:54.361Z,18.50
2023-05-13T07:43:26.014Z,18.50
2023-05-13T07:43:57.668Z,18.50
2023-05-13T07:44:29.378Z,18.60
2023-05-13T07:45:01.028Z,18.60
2023-05-13T07:45:32.683Z,18.50
2023-05-13T07:46:04.335Z,18.50
2023-05-13T07:46:36.026Z,18.60
2023-05-13T07:47:07.777Z,18.50
2023-05-13T07:47:40.251Z,18.50
2023-05-13T07:48:12.698Z,18.50
2023-05-13T07:48:44.372Z,18.50
2023-05-13T07:49:16.045Z,18.50
2023-05-13T07:50:19.975Z,18.40
2023-05-13T07:50:51.685Z,18.50
2023-05-13T07:51:23.340Z,18.60
2023-05-13T07:51:55.034Z,18.50
2023-05-13T07:52:26.693Z,18.50
2023-05-13T07:52:58.349Z,18.50
2023-05-13T07:53:30.025Z,18.40
2023-05-13T07:54:01.717Z,18.60
2023-05-13T07:54:33.412Z,18.50
2023-05-13T07:55:05.168Z,18.50
2023-05-13T07:56:09.177Z,18.30
2023-05-13T07:56:40.841Z,18.50
2023-05-13T07:57:44.856Z,18.40
2023-05-13T07:58:16.513Z,18.40
2023-05-13T09:07:24.834Z,18.30
2023-05-13T09:17:43.435Z,18.30
2023-05-13T09:25:24.033Z,18.30
2023-05-13T10:09:05.100Z,18.30
2023-05-13T10:09:36.798Z,18.40
2023-05-13T10:10:08.541Z,18.40
2023-05-13T10:10:40.204Z,18.40
2023-05-13T10:11:13.110Z,18.40
2023-05-13T10:11:45.354Z,18.40
2023-05-13T10:12:17.011Z,18.30
2023-05-13T10:12:48.664Z,18.40
2023-05-13T10:13:20.355Z,18.40
2023-05-13T10:13:52.029Z,18.40
2023-05-13T10:14:23.675Z,18.50
2023-05-13T10:14:55.324Z,18.40
2023-05-13T10:15:27.002Z,18.40
2023-05-13T10:15:58.691Z,18.40
2023-05-13T10:16:30.385Z,18.40
2023-05-13T10:17:02.140Z,18.60
2023-05-13T10:17:33.900Z,18.40
2023-05-13T10:18:07.558Z,18.30
2023-05-13T10:18:39.457Z,18.40
2023-05-13T10:19:11.265Z,18.50
2023-05-13T10:19:42.991Z,18.40
2023-05-13T10:20:14.649Z,18.40
2023-05-13T10:20:46.297Z,18.40
2023-05-13T10:21:17.984Z,18.40
2023-05-13T10:21:49.632Z,18.30
2023-05-13T10:22:21.280Z,18.40
2023-05-13T10:22:52.929Z,18.40
2023-05-13T10:23:24.851Z,18.40
2023-05-13T10:23:56.763Z,18.40
2023-05-13T10:24:28.427Z,18.40
2023-05-13T10:25:00.151Z,18.40
2023-05-13T10:25:31.802Z,18.40
2023-05-13T10:26:03.455Z,18.40
2023-05-13T10:26:35.122Z,18.40
2023-05-13T10:27:06.811Z,18.40
2023-05-13T10:27:38.456Z,18.30
2023-05-13T10:28:10.116Z,18.40
2023-05-13T10:28:41.794Z,18.50
2023-05-13T10:29:13.468Z,18.40
2023-05-13T10:29:45.116Z,18.30
2023-05-13T10:30:16.807Z,18.30
2023-05-13T10:30:48.480Z,18.30
2023-05-13T10:31:20.169Z,18.30
2023-05-13T10:31:51.871Z,18.40
2023-05-13T10:32:23.620Z,18.40
2023-05-13T10:32:55.474Z,18.30
2023-05-13T10:33:27.282Z,18.40
2023-05-13T10:33:58.935Z,18.40
2023-05-13T10:34:30.612Z,18.30
2023-05-13T10:35:02.267Z,18.40
2023-05-13T10:35:36.251Z,18.50
2023-05-13T10:36:09.389Z,18.40
2023-05-13T10:36:41.084Z,18.40
2023-05-13T10:37:12.747Z,18.40
2023-05-13T10:37:44.455Z,18.40
2023-05-13T10:38:16.117Z,18.30
2023-05-13T10:38:47.784Z,18.30
2023-05-13T10:39:19.488Z,18.30
2023-05-13T10:39:51.171Z,18.50
2023-05-13T10:40:23.297Z,18.30
2023-05-13T10:40:55.323Z,18.30
2023-05-13T10:41:26.990Z,18.40
2023-05-13T10:41:58.641Z,18.30
2023-05-13T10:42:30.360Z,18.30
2023-05-13T10:43:02.014Z,18.40
2023-05-13T10:43:33.685Z,18.40
2023-05-13T10:44:05.343Z,18.40
2023-05-13T10:44:36.992Z,18.40
2023-05-13T10:45:08.646Z,18.30
2023-05-13T10:45:40.326Z,18.30
2023-05-13T10:46:12.013Z,18.30
2023-05-13T10:46:43.919Z,18.40
2023-05-13T10:47:15.625Z,18.40
2023-05-13T10:47:47.468Z,18.40
2023-05-13T10:48:19.462Z,18.40
2023-05-13T10:48:51.205Z,18.30
2023-05-13T10:49:22.876Z,18.30
2023-05-13T10:49:54.570Z,18.40
2023-05-13T10:50:26.336Z,18.40
2023-05-13T10:50:58.009Z,18.40
2023-05-13T10:51:29.678Z,18.40
2023-05-13T10:52:01.324Z,18.30
2023-05-13T10:52:32.973Z,18.50
2023-05-13T10:53:04.635Z,18.30
2023-05-13T10:54:09.168Z,18.40
2023-05-13T10:54:40.820Z,18.40
2023-05-13T10:55:12.476Z,18.30
2023-05-13T10:56:16.432Z,18.40
2023-05-13T10:57:20.689Z,18.40
2023-05-13T10:57:52.341Z,18.40
2023-05-13T10:58:56.388Z,18.30
2023-05-13T11:00:00.307Z,18.20
2023-05-13T11:01:04.227Z,18.30
2023-05-13T11:01:36.020Z,18.40
2023-05-13T11:02:07.826Z,18.40
2023-05-13T11:03:11.928Z,18.30
2023-05-13T11:05:20.709Z,18.40
2023-05-13T11:06:57.035Z,18.30
2023-05-13T11:07:28.670Z,18.40
2023-05-13T11:09:05.084Z,18.30
2023-05-13T11:09:36.721Z,18.40
2023-05-13T11:10:08.362Z,18.40
2023-05-13T11:11:12.364Z,18.40
2023-05-13T11:12:48.937Z,18.30
2023-05-13T11:13:20.598Z,18.40
2023-05-13T11:14:24.537Z,18.30
2023-05-13T11:15:28.500Z,18.30
2023-05-13T11:17:04.734Z,18.30
2023-05-13T11:18:09.617Z,18.30
2023-05-13T11:19:45.895Z,18.30
2023-05-13T11:21:24.532Z,18.30
2023-05-13T11:25:11.094Z,18.30
2023-05-13T11:25:42.751Z,18.40
2023-05-13T11:26:47.118Z,18.30
2023-05-13T11:27:51.100Z,18.20
2023-05-13T11:29:59.739Z,18.30
2023-05-13T11:31:35.957Z,18.30
2023-05-13T11:32:40.043Z,18.30
2023-05-13T11:33:11.752Z,18.40
2023-05-13T11:34:15.777Z,18.30
2023-05-13T11:35:19.774Z,18.30
2023-05-13T12:55:41.577Z,18.20
2023-05-13T12:56:13.228Z,18.40
2023-05-13T12:56:44.897Z,18.30
2023-05-13T12:57:16.553Z,18.40
2023-05-13T12:57:48.198Z,18.40
2023-05-13T12:58:52.146Z,18.30
2023-05-13T12:59:23.825Z,18.40
2023-05-13T12:59:55.516Z,18.30
2023-05-13T13:00:59.535Z,18.40
2023-05-13T13:01:31.236Z,18.40
2023-05-13T13:03:07.940Z,18.30
2023-05-13T13:03:40.043Z,18.50
2023-05-13T17:57:37.129Z,18.70
2023-05-13T17:58:08.828Z,18.90
2023-05-13T17:58:40.492Z,18.90
2023-05-13T17:59:12.589Z,18.80
2023-05-13T17:59:44.239Z,18.80
2023-05-13T18:00:15.898Z,18.90
2023-05-13T18:00:47.559Z,18.70
2023-05-13T18:01:19.261Z,18.80
2023-05-13T18:01:51.025Z,18.80
2023-05-13T18:02:22.746Z,18.70
2023-05-13T18:02:54.513Z,18.80
2023-05-13T18:03:26.255Z,18.70
2023-05-13T18:03:57.891Z,18.70
2023-05-13T18:04:29.553Z,18.70
2023-05-13T18:05:01.221Z,18.70
2023-05-13T18:05:32.951Z,18.70
2023-05-13T18:06:04.666Z,18.60
2023-05-13T18:06:36.367Z,18.60
2023-05-13T18:07:08.033Z,18.60
2023-05-13T18:07:39.687Z,18.60
2023-05-13T18:08:43.658Z,18.60
2023-05-13T18:09:15.367Z,18.60
2023-05-13T18:09:48.637Z,18.60
2023-05-13T18:10:21.760Z,18.70
2023-05-13T18:10:53.617Z,18.70
2023-05-13T18:11:25.267Z,18.60
2023-05-13T18:11:56.916Z,18.60
2023-05-13T18:13:01.096Z,18.60
2023-05-13T18:13:32.761Z,18.70
2023-05-13T18:14:04.424Z,18.60
2023-05-13T18:16:13.278Z,18.60
2023-05-13T18:16:44.989Z,18.60
2023-05-13T18:17:16.718Z,18.60
2023-05-13T18:17:48.419Z,18.70
2023-05-13T18:18:20.102Z,18.60
2023-05-13T18:21:01.986Z,18.60
2023-05-13T18:21:33.635Z,18.60
2023-05-13T18:22:05.326Z,18.60
2023-05-13T18:24:14.547Z,18.50
2023-05-13T18:25:56.019Z,18.50
2023-05-13T18:26:28.179Z,18.70
2023-05-13T18:26:59.843Z,18.70
2023-05-13T22:57:34.144Z,18.70
2023-05-13T22:58:05.820Z,18.80
2023-05-13T22:58:37.478Z,18.90
2023-05-13T22:59:09.131Z,18.90
2023-05-13T23:00:45.453Z,18.80
2023-05-13T23:01:17.124Z,18.90
2023-05-13T23:01:48.880Z,18.70
2023-05-13T23:02:20.589Z,18.90
2023-05-13T23:02:52.315Z,18.90
2023-05-13T23:03:23.991Z,18.80
2023-05-13T23:03:55.734Z,18.80
2023-05-13T23:04:27.483Z,18.90
2023-05-13T23:04:59.152Z,18.80
2023-05-13T23:05:30.807Z,18.90
2023-05-13T23:06:34.809Z,18.80
2023-05-13T23:07:06.505Z,18.90
2023-05-13T23:07:38.160Z,18.90
2023-05-13T23:08:09.798Z,18.80
2023-05-13T23:08:41.443Z,18.80
2023-05-13T23:09:13.097Z,18.90
2023-05-13T23:09:44.778Z,18.80
2023-05-13T23:10:16.435Z,18.80
2023-05-13T23:10:48.089Z,18.90
2023-05-13T23:11:19.735Z,18.80
2023-05-13T23:11:51.378Z,18.70
2023-05-13T23:12:23.120Z,18.80
2023-05-13T23:12:54.796Z,18.80
2023-05-13T23:13:26.484Z,18.90
2023-05-13T23:13:58.123Z,18.70
2023-05-13T23:14:29.773Z,18.80
2023-05-13T23:15:01.435Z,18.80
2023-05-13T23:15:33.125Z,18.80
2023-05-13T23:16:04.905Z,18.90
2023-05-13T23:16:36.666Z,18.80
2023-05-13T23:17:08.375Z,18.80
2023-05-13T23:17:40.085Z,18.80
2023-05-13T23:18:11.792Z,18.80
2023-05-13T23:18:43.518Z,18.80
2023-05-13T23:19:15.336Z,18.80
2023-05-13T23:19:47.017Z,18.80